PED weather

Pardubice Airport
Pardubice, Pardubice Region, Czechia

Public forecast

Using degrees Celsius for public forecast. Weather courtesy of forecast.io.

METAR (pilot weather report)

Retrieved 2019/09/19 01:00 UTC (1 minute ago):

LKPD 190100Z 27008KT CAVOK 08/04 Q1024 RMK BLU

TAF (pilot weather forecast)

Retrieved 2019/09/19 00:06 UTC (55 minutes ago):

TAF LKPD 182300Z 1900/2000 27006KT CAVOK BECMG 1906/1908 28012KT TEMPO 1907/1912 BKN035 BECMG 1916/1918 27004KT